sensor_id;sensor_type;location;lat;lon;timestamp;P1;durP1;ratioP1;P2;durP2;ratioP2
25341;SDS011;13298;48.792;9.154;2023-12-20T00:00:25;1.92;;;0.90;;
25341;SDS011;13298;48.792;9.154;2023-12-20T00:02:51;1.25;;;0.75;;
25341;SDS011;13298;48.792;9.154;2023-12-20T00:05:17;1.33;;;0.82;;
25341;SDS011;13298;48.792;9.154;2023-12-20T00:07:43;1.00;;;0.80;;
25341;SDS011;13298;48.792;9.154;2023-12-20T00:10:08;1.25;;;1.02;;
25341;SDS011;13298;48.792;9.154;2023-12-20T00:12:34;1.42;;;0.82;;
25341;SDS011;13298;48.792;9.154;2023-12-20T00:15:00;1.10;;;0.85;;
25341;SDS011;13298;48.792;9.154;2023-12-20T00:17:26;1.13;;;0.80;;
25341;SDS011;13298;48.792;9.154;2023-12-20T00:19:51;1.40;;;0.90;;
25341;SDS011;13298;48.792;9.154;2023-12-20T00:22:17;1.90;;;0.90;;
25341;SDS011;13298;48.792;9.154;2023-12-20T00:24:43;1.55;;;0.70;;
25341;SDS011;13298;48.792;9.154;2023-12-20T00:27:08;1.20;;;0.80;;
25341;SDS011;13298;48.792;9.154;2023-12-20T00:29:34;1.35;;;0.80;;
25341;SDS011;13298;48.792;9.154;2023-12-20T00:32:00;0.60;;;0.60;;
25341;SDS011;13298;48.792;9.154;2023-12-20T00:34:25;1.00;;;0.80;;
25341;SDS011;13298;48.792;9.154;2023-12-20T00:36:51;1.27;;;0.80;;
25341;SDS011;13298;48.792;9.154;2023-12-20T00:39:17;0.77;;;0.68;;
25341;SDS011;13298;48.792;9.154;2023-12-20T00:41:42;0.75;;;0.60;;
25341;SDS011;13298;48.792;9.154;2023-12-20T00:44:08;0.75;;;0.60;;
25341;SDS011;13298;48.792;9.154;2023-12-20T00:46:34;1.10;;;0.77;;
25341;SDS011;13298;48.792;9.154;2023-12-20T00:48:59;0.70;;;0.70;;
25341;SDS011;13298;48.792;9.154;2023-12-20T00:51:25;0.52;;;0.50;;
25341;SDS011;13298;48.792;9.154;2023-12-20T00:53:51;1.17;;;0.77;;
25341;SDS011;13298;48.792;9.154;2023-12-20T00:56:19;1.27;;;0.70;;
25341;SDS011;13298;48.792;9.154;2023-12-20T00:58:46;1.92;;;0.70;;
25341;SDS011;13298;48.792;9.154;2023-12-20T01:01:11;0.77;;;0.77;;
25341;SDS011;13298;48.792;9.154;2023-12-20T01:03:37;2.72;;;1.00;;
25341;SDS011;13298;48.792;9.154;2023-12-20T01:06:03;0.80;;;0.80;;
25341;SDS011;13298;48.792;9.154;2023-12-20T01:08:30;0.68;;;0.63;;
25341;SDS011;13298;48.792;9.154;2023-12-20T01:10:55;0.70;;;0.60;;
25341;SDS011;13298;48.792;9.154;2023-12-20T01:13:21;0.90;;;0.70;;
25341;SDS011;13298;48.792;9.154;2023-12-20T01:15:47;1.23;;;0.80;;
25341;SDS011;13298;48.792;9.154;2023-12-20T01:18:13;0.85;;;0.70;;
25341;SDS011;13298;48.792;9.154;2023-12-20T01:20:39;0.88;;;0.75;;
25341;SDS011;13298;48.792;9.154;2023-12-20T01:23:05;1.60;;;0.75;;
25341;SDS011;13298;48.792;9.154;2023-12-20T01:25:31;1.30;;;0.93;;
25341;SDS011;13298;48.792;9.154;2023-12-20T01:27:56;1.05;;;0.80;;
25341;SDS011;13298;48.792;9.154;2023-12-20T01:30:22;2.83;;;0.80;;
25341;SDS011;13298;48.792;9.154;2023-12-20T01:32:48;1.20;;;0.70;;
25341;SDS011;13298;48.792;9.154;2023-12-20T01:35:13;0.77;;;0.73;;
25341;SDS011;13298;48.792;9.154;2023-12-20T01:37:39;1.20;;;0.82;;
25341;SDS011;13298;48.792;9.154;2023-12-20T01:40:05;1.67;;;0.90;;
25341;SDS011;13298;48.792;9.154;2023-12-20T01:42:31;0.60;;;0.50;;
25341;SDS011;13298;48.792;9.154;2023-12-20T01:44:57;1.10;;;0.80;;
25341;SDS011;13298;48.792;9.154;2023-12-20T01:47:22;0.85;;;0.60;;
25341;SDS011;13298;48.792;9.154;2023-12-20T01:49:49;1.15;;;0.82;;
25341;SDS011;13298;48.792;9.154;2023-12-20T01:52:15;0.73;;;0.73;;
25341;SDS011;13298;48.792;9.154;2023-12-20T01:54:41;1.50;;;0.80;;
25341;SDS011;13298;48.792;9.154;2023-12-20T01:57:08;1.85;;;0.88;;
25341;SDS011;13298;48.792;9.154;2023-12-20T01:59:34;1.40;;;0.90;;
25341;SDS011;13298;48.792;9.154;2023-12-20T02:02:00;0.68;;;0.68;;
25341;SDS011;13298;48.792;9.154;2023-12-20T02:04:28;1.00;;;0.80;;
25341;SDS011;13298;48.792;9.154;2023-12-20T02:06:54;2.40;;;0.70;;
25341;SDS011;13298;48.792;9.154;2023-12-20T02:09:22;1.20;;;0.60;;
25341;SDS011;13298;48.792;9.154;2023-12-20T02:11:48;0.95;;;0.82;;
25341;SDS011;13298;48.792;9.154;2023-12-20T02:14:14;0.88;;;0.65;;
25341;SDS011;13298;48.792;9.154;2023-12-20T02:16:40;1.10;;;0.80;;
25341;SDS011;13298;48.792;9.154;2023-12-20T02:19:07;1.23;;;0.80;;
25341;SDS011;13298;48.792;9.154;2023-12-20T02:21:39;0.98;;;0.70;;
25341;SDS011;13298;48.792;9.154;2023-12-20T02:24:05;2.10;;;0.80;;
25341;SDS011;13298;48.792;9.154;2023-12-20T02:26:31;2.08;;;0.70;;
25341;SDS011;13298;48.792;9.154;2023-12-20T02:28:58;0.80;;;0.70;;
25341;SDS011;13298;48.792;9.154;2023-12-20T02:31:25;0.88;;;0.63;;
25341;SDS011;13298;48.792;9.154;2023-12-20T02:33:50;1.17;;;0.70;;
25341;SDS011;13298;48.792;9.154;2023-12-20T02:36:16;0.80;;;0.73;;
25341;SDS011;13298;48.792;9.154;2023-12-20T02:38:42;1.58;;;0.80;;
25341;SDS011;13298;48.792;9.154;2023-12-20T02:41:07;1.02;;;0.80;;
25341;SDS011;13298;48.792;9.154;2023-12-20T02:43:33;0.98;;;0.75;;
25341;SDS011;13298;48.792;9.154;2023-12-20T02:45:59;0.80;;;0.65;;
25341;SDS011;13298;48.792;9.154;2023-12-20T02:48:24;2.90;;;0.93;;
25341;SDS011;13298;48.792;9.154;2023-12-20T02:50:50;0.73;;;0.73;;
25341;SDS011;13298;48.792;9.154;2023-12-20T02:53:16;2.67;;;1.00;;
25341;SDS011;13298;48.792;9.154;2023-12-20T02:55:42;1.48;;;0.75;;
25341;SDS011;13298;48.792;9.154;2023-12-20T02:58:07;1.00;;;0.80;;
25341;SDS011;13298;48.792;9.154;2023-12-20T03:00:33;3.33;;;0.75;;
25341;SDS011;13298;48.792;9.154;2023-12-20T03:02:59;1.30;;;1.00;;
25341;SDS011;13298;48.792;9.154;2023-12-20T03:05:24;0.70;;;0.63;;
25341;SDS011;13298;48.792;9.154;2023-12-20T03:07:50;2.83;;;0.60;;
25341;SDS011;13298;48.792;9.154;2023-12-20T03:10:18;2.72;;;1.00;;
25341;SDS011;13298;48.792;9.154;2023-12-20T03:12:43;0.65;;;0.50;;
25341;SDS011;13298;48.792;9.154;2023-12-20T03:15:10;0.38;;;0.30;;
25341;SDS011;13298;48.792;9.154;2023-12-20T03:17:35;1.95;;;0.40;;
25341;SDS011;13298;48.792;9.154;2023-12-20T03:20:01;0.60;;;0.47;;
25341;SDS011;13298;48.792;9.154;2023-12-20T03:22:27;0.52;;;0.35;;
25341;SDS011;13298;48.792;9.154;2023-12-20T03:24:53;1.65;;;0.30;;
25341;SDS011;13298;48.792;9.154;2023-12-20T03:27:18;0.68;;;0.50;;
25341;SDS011;13298;48.792;9.154;2023-12-20T03:29:44;0.28;;;0.20;;
25341;SDS011;13298;48.792;9.154;2023-12-20T03:32:10;0.70;;;0.30;;
25341;SDS011;13298;48.792;9.154;2023-12-20T03:34:35;0.82;;;0.40;;
25341;SDS011;13298;48.792;9.154;2023-12-20T03:37:01;0.88;;;0.28;;
25341;SDS011;13298;48.792;9.154;2023-12-20T03:39:27;0.60;;;0.20;;
25341;SDS011;13298;48.792;9.154;2023-12-20T03:41:52;0.20;;;0.10;;
25341;SDS011;13298;48.792;9.154;2023-12-20T03:44:18;0.47;;;0.22;;
25341;SDS011;13298;48.792;9.154;2023-12-20T03:46:45;0.10;;;0.10;;
25341;SDS011;13298;48.792;9.154;2023-12-20T03:49:11;0.10;;;0.10;;
25341;SDS011;13298;48.792;9.154;2023-12-20T03:51:36;0.20;;;0.20;;
25341;SDS011;13298;48.792;9.154;2023-12-20T03:54:02;0.10;;;0.10;;
25341;SDS011;13298;48.792;9.154;2023-12-20T03:56:28;0.15;;;0.13;;
25341;SDS011;13298;48.792;9.154;2023-12-20T03:58:54;0.10;;;0.10;;
25341;SDS011;13298;48.792;9.154;2023-12-20T04:01:19;0.20;;;0.10;;
25341;SDS011;13298;48.792;9.154;2023-12-20T04:03:45;0.20;;;0.10;;
25341;SDS011;13298;48.792;9.154;2023-12-20T04:06:16;0.10;;;0.10;;
25341;SDS011;13298;48.792;9.154;2023-12-20T04:08:42;0.80;;;0.20;;
25341;SDS011;13298;48.792;9.154;2023-12-20T04:11:08;0.10;;;0.10;;
25341;SDS011;13298;48.792;9.154;2023-12-20T04:13:34;0.15;;;0.10;;
25341;SDS011;13298;48.792;9.154;2023-12-20T04:15:59;0.20;;;0.20;;
25341;SDS011;13298;48.792;9.154;2023-12-20T04:18:25;1.38;;;0.13;;
25341;SDS011;13298;48.792;9.154;2023-12-20T04:20:51;0.10;;;0.10;;
25341;SDS011;13298;48.792;9.154;2023-12-20T04:23:16;0.52;;;0.10;;
25341;SDS011;13298;48.792;9.154;2023-12-20T04:25:42;1.67;;;0.17;;
25341;SDS011;13298;48.792;9.154;2023-12-20T04:28:08;0.20;;;0.20;;
25341;SDS011;13298;48.792;9.154;2023-12-20T04:30:33;0.43;;;0.10;;
25341;SDS011;13298;48.792;9.154;2023-12-20T04:33:00;0.20;;;0.15;;
25341;SDS011;13298;48.792;9.154;2023-12-20T04:35:25;0.10;;;0.10;;
25341;SDS011;13298;48.792;9.154;2023-12-20T04:37:51;1.85;;;0.20;;
25341;SDS011;13298;48.792;9.154;2023-12-20T04:40:17;0.20;;;0.10;;
25341;SDS011;13298;48.792;9.154;2023-12-20T04:42:42;0.10;;;0.10;;
25341;SDS011;13298;48.792;9.154;2023-12-20T04:45:09;0.30;;;0.10;;
25341;SDS011;13298;48.792;9.154;2023-12-20T04:47:34;0.00;;;0.00;;
25341;SDS011;13298;48.792;9.154;2023-12-20T04:50:00;0.10;;;0.10;;
25341;SDS011;13298;48.792;9.154;2023-12-20T04:52:27;0.60;;;0.10;;
25341;SDS011;13298;48.792;9.154;2023-12-20T04:54:52;0.20;;;0.20;;
25341;SDS011;13298;48.792;9.154;2023-12-20T04:57:18;0.73;;;0.20;;
25341;SDS011;13298;48.792;9.154;2023-12-20T04:59:44;0.30;;;0.10;;
25341;SDS011;13298;48.792;9.154;2023-12-20T05:02:09;0.10;;;0.10;;
25341;SDS011;13298;48.792;9.154;2023-12-20T05:04:35;0.22;;;0.10;;
25341;SDS011;13298;48.792;9.154;2023-12-20T05:07:01;0.03;;;0.03;;
25341;SDS011;13298;48.792;9.154;2023-12-20T05:09:26;0.40;;;0.30;;
25341;SDS011;13298;48.792;9.154;2023-12-20T05:11:52;0.17;;;0.17;;
25341;SDS011;13298;48.792;9.154;2023-12-20T05:14:18;0.52;;;0.10;;
25341;SDS011;13298;48.792;9.154;2023-12-20T05:16:44;1.13;;;0.15;;
25341;SDS011;13298;48.792;9.154;2023-12-20T05:19:10;0.85;;;0.10;;
25341;SDS011;13298;48.792;9.154;2023-12-20T05:21:35;0.10;;;0.10;;
25341;SDS011;13298;48.792;9.154;2023-12-20T05:24:01;2.83;;;0.10;;
25341;SDS011;13298;48.792;9.154;2023-12-20T05:26:27;0.30;;;0.10;;
25341;SDS011;13298;48.792;9.154;2023-12-20T05:28:54;0.10;;;0.10;;
25341;SDS011;13298;48.792;9.154;2023-12-20T05:31:20;0.55;;;0.20;;
25341;SDS011;13298;48.792;9.154;2023-12-20T05:33:45;0.10;;;0.10;;
25341;SDS011;13298;48.792;9.154;2023-12-20T05:36:11;1.77;;;0.20;;
25341;SDS011;13298;48.792;9.154;2023-12-20T05:38:38;0.35;;;0.20;;
25341;SDS011;13298;48.792;9.154;2023-12-20T05:41:04;0.35;;;0.20;;
25341;SDS011;13298;48.792;9.154;2023-12-20T05:43:30;2.05;;;0.20;;
25341;SDS011;13298;48.792;9.154;2023-12-20T05:45:55;0.38;;;0.30;;
25341;SDS011;13298;48.792;9.154;2023-12-20T05:48:21;0.38;;;0.20;;
25341;SDS011;13298;48.792;9.154;2023-12-20T05:50:47;0.52;;;0.30;;
25341;SDS011;13298;48.792;9.154;2023-12-20T05:53:14;0.10;;;0.10;;
25341;SDS011;13298;48.792;9.154;2023-12-20T05:55:39;1.77;;;0.30;;
25341;SDS011;13298;48.792;9.154;2023-12-20T05:58:05;0.30;;;0.20;;
25341;SDS011;13298;48.792;9.154;2023-12-20T06:00:31;1.08;;;0.32;;
25341;SDS011;13298;48.792;9.154;2023-12-20T06:02:57;0.20;;;0.20;;
25341;SDS011;13298;48.792;9.154;2023-12-20T06:05:22;0.28;;;0.20;;
25341;SDS011;13298;48.792;9.154;2023-12-20T06:07:48;0.30;;;0.20;;
25341;SDS011;13298;48.792;9.154;2023-12-20T06:10:15;1.20;;;0.20;;
25341;SDS011;13298;48.792;9.154;2023-12-20T06:12:41;1.52;;;0.22;;
25341;SDS011;13298;48.792;9.154;2023-12-20T06:15:07;0.50;;;0.30;;
25341;SDS011;13298;48.792;9.154;2023-12-20T06:17:33;0.50;;;0.20;;
25341;SDS011;13298;48.792;9.154;2023-12-20T06:20:00;0.40;;;0.30;;
25341;SDS011;13298;48.792;9.154;2023-12-20T06:22:26;0.32;;;0.32;;
25341;SDS011;13298;48.792;9.154;2023-12-20T06:24:51;3.50;;;0.43;;
25341;SDS011;13298;48.792;9.154;2023-12-20T06:27:17;2.40;;;0.32;;
25341;SDS011;13298;48.792;9.154;2023-12-20T06:29:43;0.40;;;0.30;;
25341;SDS011;13298;48.792;9.154;2023-12-20T06:32:09;1.15;;;0.22;;
25341;SDS011;13298;48.792;9.154;2023-12-20T06:34:35;1.10;;;0.20;;
25341;SDS011;13298;48.792;9.154;2023-12-20T06:37:01;0.77;;;0.20;;
25341;SDS011;13298;48.792;9.154;2023-12-20T06:39:27;0.30;;;0.30;;
25341;SDS011;13298;48.792;9.154;2023-12-20T06:41:53;1.77;;;0.50;;
25341;SDS011;13298;48.792;9.154;2023-12-20T06:44:18;2.85;;;0.50;;
25341;SDS011;13298;48.792;9.154;2023-12-20T06:46:44;0.75;;;0.50;;
25341;SDS011;13298;48.792;9.154;2023-12-20T06:49:10;1.38;;;0.40;;
25341;SDS011;13298;48.792;9.154;2023-12-20T06:51:35;0.40;;;0.40;;
25341;SDS011;13298;48.792;9.154;2023-12-20T06:54:01;0.98;;;0.40;;
25341;SDS011;13298;48.792;9.154;2023-12-20T06:56:27;1.83;;;0.52;;
25341;SDS011;13298;48.792;9.154;2023-12-20T06:58:53;0.50;;;0.50;;
25341;SDS011;13298;48.792;9.154;2023-12-20T07:01:19;0.50;;;0.50;;
25341;SDS011;13298;48.792;9.154;2023-12-20T07:03:44;0.88;;;0.32;;
25341;SDS011;13298;48.792;9.154;2023-12-20T07:06:10;0.32;;;0.30;;
25341;SDS011;13298;48.792;9.154;2023-12-20T07:08:36;0.45;;;0.32;;
25341;SDS011;13298;48.792;9.154;2023-12-20T07:11:02;0.82;;;0.70;;
25341;SDS011;13298;48.792;9.154;2023-12-20T07:13:27;1.50;;;0.95;;
25341;SDS011;13298;48.792;9.154;2023-12-20T07:15:53;1.25;;;1.02;;
25341;SDS011;13298;48.792;9.154;2023-12-20T07:18:19;3.38;;;1.13;;
25341;SDS011;13298;48.792;9.154;2023-12-20T07:20:44;2.03;;;1.10;;
25341;SDS011;13298;48.792;9.154;2023-12-20T07:23:10;1.83;;;1.40;;
25341;SDS011;13298;48.792;9.154;2023-12-20T07:25:36;1.45;;;1.13;;
25341;SDS011;13298;48.792;9.154;2023-12-20T07:28:02;1.67;;;1.38;;
25341;SDS011;13298;48.792;9.154;2023-12-20T07:30:28;3.00;;;1.75;;
25341;SDS011;13298;48.792;9.154;2023-12-20T07:32:53;1.60;;;1.40;;
25341;SDS011;13298;48.792;9.154;2023-12-20T07:35:19;2.35;;;1.80;;
25341;SDS011;13298;48.792;9.154;2023-12-20T07:37:45;3.53;;;1.58;;
25341;SDS011;13298;48.792;9.154;2023-12-20T07:40:10;2.67;;;1.55;;
25341;SDS011;13298;48.792;9.154;2023-12-20T07:42:36;2.33;;;1.52;;
25341;SDS011;13298;48.792;9.154;2023-12-20T07:45:03;3.35;;;2.00;;
25341;SDS011;13298;48.792;9.154;2023-12-20T07:47:29;3.63;;;1.92;;
25341;SDS011;13298;48.792;9.154;2023-12-20T07:49:55;3.08;;;1.85;;
25341;SDS011;13298;48.792;9.154;2023-12-20T07:52:21;2.58;;;1.92;;
25341;SDS011;13298;48.792;9.154;2023-12-20T07:54:49;3.67;;;2.25;;
25341;SDS011;13298;48.792;9.154;2023-12-20T07:57:14;2.45;;;1.88;;
25341;SDS011;13298;48.792;9.154;2023-12-20T07:59:40;3.50;;;2.10;;
25341;SDS011;13298;48.792;9.154;2023-12-20T08:02:06;2.97;;;1.88;;
25341;SDS011;13298;48.792;9.154;2023-12-20T08:04:32;2.70;;;1.73;;
25341;SDS011;13298;48.792;9.154;2023-12-20T08:06:58;4.00;;;2.15;;
25341;SDS011;13298;48.792;9.154;2023-12-20T08:09:23;1.98;;;1.70;;
25341;SDS011;13298;48.792;9.154;2023-12-20T08:11:49;4.28;;;2.50;;
25341;SDS011;13298;48.792;9.154;2023-12-20T08:14:18;6.03;;;2.38;;
25341;SDS011;13298;48.792;9.154;2023-12-20T08:16:43;3.72;;;2.35;;
25341;SDS011;13298;48.792;9.154;2023-12-20T08:19:09;5.63;;;2.10;;
25341;SDS011;13298;48.792;9.154;2023-12-20T08:21:35;5.57;;;2.03;;
25341;SDS011;13298;48.792;9.154;2023-12-20T08:24:01;5.47;;;2.10;;
25341;SDS011;13298;48.792;9.154;2023-12-20T08:26:26;4.93;;;2.40;;
25341;SDS011;13298;48.792;9.154;2023-12-20T08:28:52;4.13;;;2.58;;
25341;SDS011;13298;48.792;9.154;2023-12-20T08:31:18;7.18;;;2.30;;
25341;SDS011;13298;48.792;9.154;2023-12-20T08:33:44;6.78;;;2.72;;
25341;SDS011;13298;48.792;9.154;2023-12-20T08:36:11;4.70;;;2.20;;
25341;SDS011;13298;48.792;9.154;2023-12-20T08:38:37;5.15;;;2.30;;
25341;SDS011;13298;48.792;9.154;2023-12-20T08:41:03;3.83;;;2.42;;
25341;SDS011;13298;48.792;9.154;2023-12-20T08:43:32;3.30;;;2.05;;
25341;SDS011;13298;48.792;9.154;2023-12-20T08:45:59;6.72;;;2.03;;
25341;SDS011;13298;48.792;9.154;2023-12-20T08:48:24;3.30;;;2.08;;
25341;SDS011;13298;48.792;9.154;2023-12-20T08:50:50;4.70;;;2.13;;
25341;SDS011;13298;48.792;9.154;2023-12-20T08:53:17;7.13;;;2.40;;
25341;SDS011;13298;48.792;9.154;2023-12-20T08:55:44;4.72;;;2.50;;
25341;SDS011;13298;48.792;9.154;2023-12-20T08:58:10;2.80;;;2.22;;
25341;SDS011;13298;48.792;9.154;2023-12-20T09:00:36;4.22;;;2.50;;
25341;SDS011;13298;48.792;9.154;2023-12-20T09:03:02;5.60;;;2.30;;
25341;SDS011;13298;48.792;9.154;2023-12-20T09:05:28;4.22;;;2.30;;
25341;SDS011;13298;48.792;9.154;2023-12-20T09:07:54;4.43;;;2.50;;
25341;SDS011;13298;48.792;9.154;2023-12-20T09:10:19;3.47;;;2.35;;
25341;SDS011;13298;48.792;9.154;2023-12-20T09:12:50;6.15;;;2.60;;
25341;SDS011;13298;48.792;9.154;2023-12-20T09:15:21;6.65;;;2.40;;
25341;SDS011;13298;48.792;9.154;2023-12-20T09:17:50;5.00;;;2.35;;
25341;SDS011;13298;48.792;9.154;2023-12-20T09:20:16;7.65;;;2.17;;
25341;SDS011;13298;48.792;9.154;2023-12-20T09:22:41;3.40;;;2.30;;
25341;SDS011;13298;48.792;9.154;2023-12-20T09:25:09;4.05;;;2.08;;
25341;SDS011;13298;48.792;9.154;2023-12-20T09:27:36;3.88;;;2.05;;
25341;SDS011;13298;48.792;9.154;2023-12-20T09:30:02;4.07;;;2.10;;
25341;SDS011;13298;48.792;9.154;2023-12-20T09:32:30;4.93;;;1.73;;
25341;SDS011;13298;48.792;9.154;2023-12-20T09:34:56;3.55;;;1.45;;
25341;SDS011;13298;48.792;9.154;2023-12-20T09:37:22;4.78;;;1.88;;
25341;SDS011;13298;48.792;9.154;2023-12-20T09:39:51;2.58;;;1.02;;
25341;SDS011;13298;48.792;9.154;2023-12-20T09:42:17;3.58;;;1.50;;
25341;SDS011;13298;48.792;9.154;2023-12-20T09:44:52;6.00;;;1.17;;
25341;SDS011;13298;48.792;9.154;2023-12-20T09:47:18;7.28;;;1.55;;
25341;SDS011;13298;48.792;9.154;2023-12-20T09:49:47;1.98;;;1.15;;
25341;SDS011;13298;48.792;9.154;2023-12-20T09:52:13;1.60;;;0.98;;
25341;SDS011;13298;48.792;9.154;2023-12-20T09:54:41;6.20;;;1.30;;
25341;SDS011;13298;48.792;9.154;2023-12-20T09:57:09;3.10;;;0.98;;
25341;SDS011;13298;48.792;9.154;2023-12-20T09:59:35;3.80;;;1.30;;
25341;SDS011;13298;48.792;9.154;2023-12-20T10:02:01;3.40;;;1.30;;
25341;SDS011;13298;48.792;9.154;2023-12-20T10:04:29;3.35;;;0.85;;
25341;SDS011;13298;48.792;9.154;2023-12-20T10:07:01;5.28;;;1.20;;
25341;SDS011;13298;48.792;9.154;2023-12-20T10:09:31;4.25;;;1.20;;
25341;SDS011;13298;48.792;9.154;2023-12-20T10:11:57;5.55;;;1.35;;
25341;SDS011;13298;48.792;9.154;2023-12-20T10:14:23;1.50;;;0.90;;
25341;SDS011;13298;48.792;9.154;2023-12-20T10:16:49;6.28;;;1.20;;
25341;SDS011;13298;48.792;9.154;2023-12-20T10:19:19;3.60;;;1.00;;
25341;SDS011;13298;48.792;9.154;2023-12-20T10:21:44;5.30;;;1.10;;
25341;SDS011;13298;48.792;9.154;2023-12-20T10:24:11;3.13;;;1.02;;
25341;SDS011;13298;48.792;9.154;2023-12-20T10:26:42;2.78;;;1.17;;
25341;SDS011;13298;48.792;9.154;2023-12-20T10:29:08;4.05;;;1.02;;
25341;SDS011;13298;48.792;9.154;2023-12-20T10:31:35;5.90;;;1.10;;
25341;SDS011;13298;48.792;9.154;2023-12-20T10:34:01;3.70;;;1.10;;
25341;SDS011;13298;48.792;9.154;2023-12-20T10:36:28;5.50;;;0.93;;
25341;SDS011;13298;48.792;9.154;2023-12-20T10:38:56;4.22;;;1.20;;
25341;SDS011;13298;48.792;9.154;2023-12-20T10:41:25;10.32;;;1.50;;
25341;SDS011;13298;48.792;9.154;2023-12-20T10:43:58;4.90;;;1.15;;
25341;SDS011;13298;48.792;9.154;2023-12-20T10:46:26;5.28;;;1.05;;
25341;SDS011;13298;48.792;9.154;2023-12-20T10:48:53;5.68;;;1.33;;
25341;SDS011;13298;48.792;9.154;2023-12-20T10:51:20;2.92;;;1.10;;
25341;SDS011;13298;48.792;9.154;2023-12-20T10:53:47;6.70;;;1.38;;
25341;SDS011;13298;48.792;9.154;2023-12-20T10:56:15;3.92;;;1.02;;
25341;SDS011;13298;48.792;9.154;2023-12-20T10:58:49;4.13;;;1.02;;
25341;SDS011;13298;48.792;9.154;2023-12-20T11:01:16;3.00;;;1.08;;
25341;SDS011;13298;48.792;9.154;2023-12-20T11:03:48;5.25;;;1.20;;
25341;SDS011;13298;48.792;9.154;2023-12-20T11:11:59;3.42;;;1.00;;
25341;SDS011;13298;48.792;9.154;2023-12-20T11:14:49;3.80;;;1.10;;
25341;SDS011;13298;48.792;9.154;2023-12-20T11:17:17;3.53;;;0.88;;
25341;SDS011;13298;48.792;9.154;2023-12-20T11:22:21;5.88;;;0.98;;
25341;SDS011;13298;48.792;9.154;2023-12-20T11:24:48;1.65;;;0.90;;
25341;SDS011;13298;48.792;9.154;2023-12-20T11:27:14;3.80;;;1.50;;
25341;SDS011;13298;48.792;9.154;2023-12-20T11:29:40;4.88;;;0.90;;
25341;SDS011;13298;48.792;9.154;2023-12-20T11:34:56;3.58;;;1.10;;
25341;SDS011;13298;48.792;9.154;2023-12-20T11:37:37;2.13;;;0.90;;
25341;SDS011;13298;48.792;9.154;2023-12-20T11:40:08;6.70;;;1.20;;
25341;SDS011;13298;48.792;9.154;2023-12-20T11:42:37;2.30;;;1.05;;
25341;SDS011;13298;48.792;9.154;2023-12-20T11:45:10;3.15;;;0.98;;
25341;SDS011;13298;48.792;9.154;2023-12-20T11:47:46;4.80;;;1.08;;
25341;SDS011;13298;48.792;9.154;2023-12-20T11:50:15;5.03;;;0.80;;
25341;SDS011;13298;48.792;9.154;2023-12-20T11:52:44;6.20;;;1.35;;
25341;SDS011;13298;48.792;9.154;2023-12-20T11:55:09;3.78;;;1.08;;
25341;SDS011;13298;48.792;9.154;2023-12-20T11:57:35;3.53;;;1.10;;
25341;SDS011;13298;48.792;9.154;2023-12-20T12:00:02;4.90;;;1.00;;
25341;SDS011;13298;48.792;9.154;2023-12-20T12:02:29;4.38;;;1.02;;
25341;SDS011;13298;48.792;9.154;2023-12-20T12:04:55;5.55;;;1.05;;
25341;SDS011;13298;48.792;9.154;2023-12-20T12:07:23;9.93;;;4.03;;
25341;SDS011;13298;48.792;9.154;2023-12-20T12:09:49;3.60;;;1.13;;
25341;SDS011;13298;48.792;9.154;2023-12-20T12:12:15;5.57;;;1.20;;
25341;SDS011;13298;48.792;9.154;2023-12-20T12:14:41;5.10;;;1.00;;
25341;SDS011;13298;48.792;9.154;2023-12-20T12:17:10;4.15;;;1.10;;
25341;SDS011;13298;48.792;9.154;2023-12-20T12:19:37;3.75;;;1.23;;
25341;SDS011;13298;48.792;9.154;2023-12-20T12:22:08;4.63;;;1.27;;
25341;SDS011;13298;48.792;9.154;2023-12-20T12:24:42;4.82;;;1.02;;
25341;SDS011;13298;48.792;9.154;2023-12-20T12:27:09;13.15;;;2.78;;
25341;SDS011;13298;48.792;9.154;2023-12-20T12:29:35;4.15;;;1.17;;
25341;SDS011;13298;48.792;9.154;2023-12-20T12:32:05;5.43;;;1.15;;
25341;SDS011;13298;48.792;9.154;2023-12-20T12:34:33;4.32;;;1.20;;
25341;SDS011;13298;48.792;9.154;2023-12-20T12:36:59;3.03;;;0.90;;
25341;SDS011;13298;48.792;9.154;2023-12-20T12:39:25;4.30;;;1.35;;
25341;SDS011;13298;48.792;9.154;2023-12-20T12:41:52;2.95;;;0.98;;
25341;SDS011;13298;48.792;9.154;2023-12-20T12:44:18;4.65;;;1.20;;
25341;SDS011;13298;48.792;9.154;2023-12-20T12:46:45;5.25;;;1.13;;
25341;SDS011;13298;48.792;9.154;2023-12-20T12:49:11;3.35;;;1.00;;
25341;SDS011;13298;48.792;9.154;2023-12-20T12:51:37;3.75;;;1.00;;
25341;SDS011;13298;48.792;9.154;2023-12-20T12:54:03;6.65;;;1.05;;
25341;SDS011;13298;48.792;9.154;2023-12-20T12:56:29;2.45;;;0.80;;
25341;SDS011;13298;48.792;9.154;2023-12-20T12:58:55;6.47;;;1.15;;
25341;SDS011;13298;48.792;9.154;2023-12-20T13:01:21;3.20;;;1.00;;
25341;SDS011;13298;48.792;9.154;2023-12-20T13:03:47;3.83;;;0.90;;
25341;SDS011;13298;48.792;9.154;2023-12-20T13:06:12;2.33;;;1.00;;
25341;SDS011;13298;48.792;9.154;2023-12-20T13:08:38;4.80;;;1.10;;
25341;SDS011;13298;48.792;9.154;2023-12-20T13:11:04;4.68;;;1.15;;
25341;SDS011;13298;48.792;9.154;2023-12-20T13:13:30;5.03;;;1.05;;
25341;SDS011;13298;48.792;9.154;2023-12-20T13:15:56;2.15;;;0.80;;
25341;SDS011;13298;48.792;9.154;2023-12-20T13:18:22;6.38;;;1.02;;
25341;SDS011;13298;48.792;9.154;2023-12-20T13:20:49;6.40;;;1.17;;
25341;SDS011;13298;48.792;9.154;2023-12-20T13:23:15;3.92;;;0.90;;
25341;SDS011;13298;48.792;9.154;2023-12-20T13:25:43;5.13;;;1.15;;
25341;SDS011;13298;48.792;9.154;2023-12-20T13:28:10;3.85;;;0.90;;
25341;SDS011;13298;48.792;9.154;2023-12-20T13:30:36;6.30;;;1.10;;
25341;SDS011;13298;48.792;9.154;2023-12-20T13:33:01;4.00;;;1.38;;
25341;SDS011;13298;48.792;9.154;2023-12-20T13:35:27;5.47;;;0.90;;
25341;SDS011;13298;48.792;9.154;2023-12-20T13:37:53;1.52;;;0.77;;
25341;SDS011;13298;48.792;9.154;2023-12-20T13:40:19;3.55;;;0.90;;
25341;SDS011;13298;48.792;9.154;2023-12-20T13:42:44;1.85;;;0.70;;
25341;SDS011;13298;48.792;9.154;2023-12-20T13:45:10;6.45;;;1.10;;
25341;SDS011;13298;48.792;9.154;2023-12-20T13:47:36;3.17;;;1.00;;
25341;SDS011;13298;48.792;9.154;2023-12-20T13:50:02;6.32;;;0.82;;
25341;SDS011;13298;48.792;9.154;2023-12-20T13:52:29;3.75;;;1.00;;
25341;SDS011;13298;48.792;9.154;2023-12-20T13:54:55;7.50;;;1.52;;
25341;SDS011;13298;48.792;9.154;2023-12-20T13:57:20;2.97;;;0.70;;
25341;SDS011;13298;48.792;9.154;2023-12-20T13:59:46;4.15;;;0.95;;
25341;SDS011;13298;48.792;9.154;2023-12-20T14:02:12;3.38;;;0.88;;
25341;SDS011;13298;48.792;9.154;2023-12-20T14:04:38;6.10;;;0.93;;
25341;SDS011;13298;48.792;9.154;2023-12-20T14:07:04;4.50;;;0.77;;
25341;SDS011;13298;48.792;9.154;2023-12-20T14:09:32;3.72;;;1.00;;
25341;SDS011;13298;48.792;9.154;2023-12-20T14:11:58;3.47;;;1.23;;
25341;SDS011;13298;48.792;9.154;2023-12-20T14:14:24;3.65;;;0.95;;
25341;SDS011;13298;48.792;9.154;2023-12-20T14:16:50;2.22;;;0.80;;
25341;SDS011;13298;48.792;9.154;2023-12-20T14:19:16;5.35;;;0.90;;
25341;SDS011;13298;48.792;9.154;2023-12-20T14:21:42;2.03;;;0.90;;
25341;SDS011;13298;48.792;9.154;2023-12-20T14:24:10;3.83;;;1.00;;
25341;SDS011;13298;48.792;9.154;2023-12-20T14:26:39;5.43;;;0.85;;
25341;SDS011;13298;48.792;9.154;2023-12-20T14:29:05;3.45;;;0.98;;
25341;SDS011;13298;48.792;9.154;2023-12-20T14:31:32;4.95;;;1.08;;
25341;SDS011;13298;48.792;9.154;2023-12-20T14:33:58;4.45;;;1.20;;
25341;SDS011;13298;48.792;9.154;2023-12-20T14:36:24;4.45;;;1.00;;
25341;SDS011;13298;48.792;9.154;2023-12-20T14:38:50;3.80;;;0.90;;
25341;SDS011;13298;48.792;9.154;2023-12-20T14:41:16;3.95;;;1.10;;
25341;SDS011;13298;48.792;9.154;2023-12-20T14:43:43;2.28;;;0.90;;
25341;SDS011;13298;48.792;9.154;2023-12-20T14:46:09;2.78;;;0.85;;
25341;SDS011;13298;48.792;9.154;2023-12-20T14:48:35;3.92;;;0.88;;
25341;SDS011;13298;48.792;9.154;2023-12-20T14:51:01;4.90;;;1.30;;
25341;SDS011;13298;48.792;9.154;2023-12-20T14:53:26;4.15;;;0.90;;